createdAt,value
2022-09-29T00:00:31.082Z,65.20
2022-09-29T00:01:28.750Z,59.30
2022-09-29T00:02:28.633Z,55.00
2022-09-29T00:03:28.630Z,50.20
2022-09-29T00:04:28.518Z,57.50
2022-09-29T00:05:28.454Z,62.10
2022-09-29T00:06:28.378Z,52.70
2022-09-29T00:07:28.323Z,58.40
2022-09-29T00:08:28.284Z,53.50
2022-09-29T00:09:28.194Z,52.80
2022-09-29T00:10:28.128Z,56.70
2022-09-29T00:11:28.059Z,61.80
2022-09-29T00:12:27.991Z,54.50
2022-09-29T00:13:27.916Z,58.80
2022-09-29T00:14:27.854Z,65.30
2022-09-29T00:15:27.809Z,62.70
2022-09-29T00:16:27.820Z,58.30
2022-09-29T00:17:27.681Z,64.10
2022-09-29T00:18:27.652Z,63.30
2022-09-29T00:19:27.530Z,69.30
2022-09-29T00:20:27.499Z,70.10
2022-09-29T00:21:27.415Z,57.80
2022-09-29T00:22:27.330Z,79.20
2022-09-29T00:23:27.297Z,70.50
2022-09-29T00:24:27.993Z,58.80
2022-09-29T00:25:27.152Z,60.30
2022-09-29T00:26:27.077Z,59.90
2022-09-29T00:27:27.013Z,62.70
2022-09-29T00:28:26.951Z,61.60
2022-09-29T00:29:26.885Z,60.00
2022-09-29T00:30:26.838Z,60.70
2022-09-29T00:31:26.867Z,72.30
2022-09-29T00:32:26.697Z,58.80
2022-09-29T00:33:26.575Z,62.60
2022-09-29T00:34:26.575Z,64.80
2022-09-29T00:35:26.504Z,70.00
2022-09-29T00:36:27.205Z,74.80
2022-09-29T00:37:26.361Z,76.50
2022-09-29T00:38:26.319Z,66.20
2022-09-29T00:39:26.268Z,68.10
2022-09-29T00:40:26.211Z,65.70
2022-09-29T00:41:26.129Z,69.30
2022-09-29T00:42:26.062Z,63.00
2022-09-29T00:43:25.976Z,66.40
2022-09-29T00:44:25.913Z,66.20
2022-09-29T00:45:25.911Z,62.40
2022-09-29T00:46:25.791Z,64.30
2022-09-29T00:47:25.717Z,60.90
2022-09-29T00:48:27.914Z,67.60
2022-09-29T00:49:25.595Z,66.40
2022-09-29T00:50:25.543Z,59.40
2022-09-29T00:51:25.462Z,66.20
2022-09-29T00:52:25.400Z,60.90
2022-09-29T00:53:25.344Z,62.80
2022-09-29T00:54:26.045Z,57.40
2022-09-29T00:55:25.209Z,48.00
2022-09-29T00:56:25.145Z,57.00
2022-09-29T00:57:25.062Z,52.70
2022-09-29T00:58:25.041Z,55.30
2022-09-29T00:59:24.937Z,60.30
2022-09-29T01:00:25.015Z,58.50
2022-09-29T01:01:24.881Z,56.10
2022-09-29T01:02:24.833Z,62.40
2022-09-29T01:03:24.689Z,63.20
2022-09-29T01:04:24.623Z,53.50
2022-09-29T01:05:24.568Z,61.80
2022-09-29T01:06:24.499Z,68.90
2022-09-29T01:07:24.434Z,65.80
2022-09-29T01:08:24.358Z,61.10
2022-09-29T01:09:24.297Z,63.40
2022-09-29T01:10:24.240Z,68.40
2022-09-29T01:11:24.174Z,67.50
2022-09-29T01:12:24.124Z,66.70
2022-09-29T01:13:24.028Z,57.30
2022-09-29T01:14:23.959Z,52.10
2022-09-29T01:15:23.922Z,56.10
2022-09-29T01:16:23.909Z,59.30
2022-09-29T01:17:23.776Z,56.70
2022-09-29T01:18:24.479Z,65.30
2022-09-29T01:19:23.656Z,70.00
2022-09-29T01:20:23.594Z,69.40
2022-09-29T01:21:23.540Z,64.50
2022-09-29T01:22:23.458Z,63.90
2022-09-29T01:23:23.383Z,64.50
2022-09-29T01:24:23.336Z,76.70
2022-09-29T01:25:23.246Z,75.20
2022-09-29T01:26:23.194Z,89.20
2022-09-29T01:27:23.135Z,80.70
2022-09-29T01:28:23.065Z,76.60
2022-09-29T01:29:23.002Z,83.70
2022-09-29T01:30:22.958Z,75.80
2022-09-29T01:31:22.943Z,74.00
2022-09-29T01:32:22.797Z,78.60
2022-09-29T01:33:22.748Z,80.00
2022-09-29T01:34:22.668Z,71.60
2022-09-29T01:35:22.621Z,80.20
2022-09-29T01:36:24.532Z,81.60
2022-09-29T01:37:22.476Z,86.20
2022-09-29T01:38:22.431Z,80.30
2022-09-29T01:39:22.338Z,84.50
2022-09-29T01:40:22.325Z,74.20
2022-09-29T01:41:22.208Z,77.40
2022-09-29T01:42:22.182Z,74.50
2022-09-29T01:43:22.109Z,77.40
2022-09-29T01:44:22.031Z,80.10
2022-09-29T01:45:21.981Z,90.70
2022-09-29T01:46:21.884Z,96.00
2022-09-29T01:47:21.822Z,86.30
2022-09-29T01:48:21.791Z,90.30
2022-09-29T01:49:21.694Z,89.00
2022-09-29T01:50:21.637Z,91.10
2022-09-29T01:51:21.578Z,94.20
2022-09-29T01:52:21.530Z,96.40
2022-09-29T01:53:21.446Z,99.20
2022-09-29T01:54:22.170Z,97.60
2022-09-29T01:55:21.311Z,85.30
2022-09-29T01:56:21.234Z,103.80
2022-09-29T01:57:21.174Z,104.80
2022-09-29T01:58:21.169Z,93.20
2022-09-29T01:59:21.040Z,95.30
2022-09-29T02:00:21.012Z,96.50
2022-09-29T02:01:21.013Z,85.90
2022-09-29T02:02:20.899Z,84.10
2022-09-29T02:03:20.795Z,89.70
2022-09-29T02:04:20.766Z,93.80
2022-09-29T02:05:20.665Z,91.60
2022-09-29T02:06:20.625Z,100.70
2022-09-29T02:07:20.522Z,103.20
2022-09-29T02:08:20.470Z,101.50
2022-09-29T02:09:20.401Z,105.30
2022-09-29T02:10:20.333Z,87.10
2022-09-29T02:11:20.282Z,98.00
2022-09-29T02:12:21.421Z,95.40
2022-09-29T02:13:20.148Z,106.60
2022-09-29T02:14:20.201Z,95.00
2022-09-29T02:15:20.001Z,93.00
2022-09-29T02:16:20.005Z,96.10
2022-09-29T02:17:19.957Z,94.30
2022-09-29T02:18:19.841Z,92.30
2022-09-29T02:19:19.774Z,98.30
2022-09-29T02:20:19.684Z,93.80
2022-09-29T02:21:19.651Z,89.20
2022-09-29T02:22:19.560Z,95.70
2022-09-29T02:23:19.484Z,103.50
2022-09-29T02:24:20.957Z,90.90
2022-09-29T02:25:19.388Z,95.70
2022-09-29T02:26:19.306Z,84.90
2022-09-29T02:27:19.252Z,89.50
2022-09-29T02:28:19.177Z,83.10
2022-09-29T02:29:19.115Z,79.00
2022-09-29T02:30:19.058Z,81.40
2022-09-29T02:31:19.040Z,80.60
2022-09-29T02:32:18.904Z,78.00
2022-09-29T02:33:18.838Z,81.40
2022-09-29T02:34:19.773Z,75.90
2022-09-29T02:35:18.721Z,91.40
2022-09-29T02:36:18.692Z,79.60
2022-09-29T02:37:18.573Z,85.90
2022-09-29T02:38:18.514Z,87.60
2022-09-29T02:39:18.463Z,82.70
2022-09-29T02:40:18.504Z,80.90
2022-09-29T02:41:18.327Z,71.50
2022-09-29T02:42:19.055Z,72.10
2022-09-29T02:43:18.203Z,71.20
2022-09-29T02:44:18.220Z,80.30
2022-09-29T02:45:18.068Z,85.50
2022-09-29T02:46:18.021Z,89.50
2022-09-29T02:47:17.939Z,84.40
2022-09-29T02:48:17.915Z,86.60
2022-09-29T02:49:17.814Z,83.00
2022-09-29T02:50:17.735Z,76.60
2022-09-29T02:51:17.664Z,77.10
2022-09-29T02:52:17.603Z,83.20
2022-09-29T02:53:17.555Z,78.20
2022-09-29T02:54:18.336Z,82.80
2022-09-29T02:55:17.424Z,94.10
2022-09-29T02:56:17.353Z,81.90
2022-09-29T02:57:17.293Z,84.70
2022-09-29T02:58:17.224Z,89.20
2022-09-29T02:59:17.159Z,90.70
2022-09-29T03:00:17.378Z,87.10
2022-09-29T03:01:17.062Z,73.50
2022-09-29T03:02:16.963Z,69.00
2022-09-29T03:03:16.948Z,73.40
2022-09-29T03:04:16.848Z,63.20
2022-09-29T03:05:16.766Z,66.30
2022-09-29T03:06:16.725Z,57.10
2022-09-29T03:07:16.627Z,62.70
2022-09-29T03:08:16.567Z,59.80
2022-09-29T03:09:16.518Z,76.40
2022-09-29T03:10:16.464Z,70.50
2022-09-29T03:11:16.375Z,60.70
2022-09-29T03:12:18.630Z,40.90
2022-09-29T03:13:16.250Z,60.30
2022-09-29T03:14:16.350Z,59.10
2022-09-29T03:15:16.124Z,58.30
2022-09-29T03:16:16.125Z,56.80
2022-09-29T03:17:15.980Z,61.00
2022-09-29T03:18:15.937Z,58.90
2022-09-29T03:19:15.851Z,33.60
2022-09-29T03:20:15.796Z,44.20
2022-09-29T03:21:15.732Z,34.80
2022-09-29T03:22:15.685Z,44.80
2022-09-29T03:23:15.593Z,50.70
2022-09-29T03:24:15.593Z,52.70
2022-09-29T03:25:15.477Z,55.30
2022-09-29T03:26:15.411Z,63.70
2022-09-29T03:27:15.348Z,62.70
2022-09-29T03:28:15.262Z,52.10
2022-09-29T03:29:15.211Z,54.00
2022-09-29T03:30:17.461Z,48.30
2022-09-29T03:31:15.113Z,59.90
2022-09-29T03:32:15.006Z,41.60
2022-09-29T03:33:14.954Z,35.50
2022-09-29T03:34:14.981Z,59.70
2022-09-29T03:35:14.826Z,51.90
2022-09-29T03:36:14.773Z,51.70
2022-09-29T03:37:14.684Z,50.50
2022-09-29T03:38:14.627Z,52.70
2022-09-29T03:39:14.586Z,60.00
2022-09-29T03:40:14.505Z,47.50
2022-09-29T03:41:14.428Z,53.80
2022-09-29T03:42:14.379Z,66.20
2022-09-29T03:43:14.348Z,65.00
2022-09-29T03:44:14.250Z,62.70
2022-09-29T03:45:14.198Z,63.30
2022-09-29T03:46:14.165Z,73.60
2022-09-29T03:47:14.039Z,69.40
2022-09-29T03:48:15.197Z,81.60
2022-09-29T03:49:13.915Z,88.30
2022-09-29T03:50:13.847Z,77.50
2022-09-29T03:51:13.790Z,101.80
2022-09-29T03:52:13.722Z,95.50
2022-09-29T03:53:13.672Z,90.10
2022-09-29T03:54:13.593Z,119.20
2022-09-29T03:55:13.516Z,118.30
2022-09-29T03:56:13.462Z,111.70
2022-09-29T03:57:13.399Z,96.50
2022-09-29T03:58:13.317Z,91.50
2022-09-29T03:59:13.270Z,97.40
2022-09-29T04:00:13.214Z,121.40
2022-09-29T04:01:13.232Z,110.80
2022-09-29T04:02:13.159Z,116.00
2022-09-29T04:03:13.001Z,117.80
2022-09-29T04:04:12.945Z,118.60
2022-09-29T04:05:12.881Z,116.20
2022-09-29T04:06:15.671Z,115.90
2022-09-29T04:07:12.753Z,100.40
2022-09-29T04:08:12.687Z,105.00
2022-09-29T04:09:12.606Z,110.60
2022-09-29T04:10:12.547Z,109.30
2022-09-29T04:11:12.488Z,120.10
2022-09-29T04:12:12.433Z,126.50
2022-09-29T04:13:15.470Z,121.40
2022-09-29T04:14:12.284Z,109.70
2022-09-29T04:15:12.223Z,107.00
2022-09-29T04:16:12.172Z,103.20
2022-09-29T04:17:12.102Z,107.60
2022-09-29T04:18:12.816Z,106.30
2022-09-29T04:19:11.994Z,98.80
2022-09-29T04:20:11.903Z,118.20
2022-09-29T04:21:11.829Z,110.50
2022-09-29T04:22:11.760Z,102.00
2022-09-29T04:23:11.701Z,120.50
2022-09-29T04:24:11.643Z,100.00
2022-09-29T04:25:11.568Z,107.30
2022-09-29T04:26:11.504Z,138.20
2022-09-29T04:27:11.440Z,121.90
2022-09-29T04:28:11.380Z,106.50
2022-09-29T04:29:11.326Z,106.00
2022-09-29T04:30:11.287Z,131.40
2022-09-29T04:31:11.276Z,102.60
2022-09-29T04:32:11.129Z,108.20
2022-09-29T04:33:11.049Z,100.50
2022-09-29T04:34:10.983Z,97.30
2022-09-29T04:35:10.928Z,80.70
2022-09-29T04:36:12.086Z,106.50
2022-09-29T04:37:10.808Z,98.00
2022-09-29T04:38:10.731Z,84.70
2022-09-29T04:39:10.677Z,77.10
2022-09-29T04:40:10.609Z,83.50
2022-09-29T04:41:10.565Z,100.60
2022-09-29T04:42:10.476Z,86.80
2022-09-29T04:43:10.404Z,81.30
2022-09-29T04:44:10.336Z,61.80
2022-09-29T04:45:10.306Z,63.00
2022-09-29T04:46:10.283Z,63.60
2022-09-29T04:47:10.143Z,60.70
2022-09-29T04:48:13.894Z,70.90
2022-09-29T04:49:10.016Z,55.50
2022-09-29T04:50:09.957Z,65.00
2022-09-29T04:51:09.900Z,67.90
2022-09-29T04:52:09.815Z,104.70
2022-09-29T04:53:09.772Z,70.10
2022-09-29T04:54:09.716Z,85.60
2022-09-29T04:55:09.571Z,71.10
2022-09-29T04:56:09.528Z,70.90
2022-09-29T04:57:09.456Z,70.10
2022-09-29T04:58:09.374Z,70.10
2022-09-29T04:59:09.310Z,77.30
2022-09-29T05:00:09.269Z,86.20
2022-09-29T05:01:09.300Z,89.10
2022-09-29T05:02:09.239Z,83.10
2022-09-29T05:03:09.060Z,82.50
2022-09-29T05:04:08.996Z,86.40
2022-09-29T05:05:08.938Z,100.70
2022-09-29T05:06:08.886Z,91.70
2022-09-29T05:07:08.798Z,88.40
2022-09-29T05:08:08.725Z,88.20
2022-09-29T05:09:08.676Z,85.40
2022-09-29T05:10:08.597Z,98.30
2022-09-29T05:11:08.549Z,95.70
2022-09-29T05:12:11.161Z,97.90
2022-09-29T05:13:08.407Z,94.70
2022-09-29T05:14:08.352Z,92.20
2022-09-29T05:15:08.287Z,101.80
2022-09-29T05:16:08.230Z,110.60
2022-09-29T05:17:08.153Z,101.10
2022-09-29T05:18:08.095Z,96.20
2022-09-29T05:19:08.036Z,115.40
2022-09-29T05:20:07.974Z,117.60
2022-09-29T05:21:27.044Z,114.40
2022-09-29T05:22:07.856Z,104.40
2022-09-29T05:23:07.841Z,114.30
2022-09-29T05:24:07.712Z,119.80
2022-09-29T05:25:07.634Z,122.60
2022-09-29T05:26:07.584Z,115.00
2022-09-29T05:27:07.517Z,113.90
2022-09-29T05:28:07.440Z,113.90
2022-09-29T05:29:07.388Z,122.00
2022-09-29T05:30:07.327Z,116.50
2022-09-29T05:31:07.290Z,120.50
2022-09-29T05:32:07.209Z,121.80
2022-09-29T05:33:07.128Z,100.10
2022-09-29T05:34:07.038Z,105.70
2022-09-29T05:35:06.977Z,104.30
2022-09-29T05:36:06.953Z,99.60
2022-09-29T05:37:06.851Z,86.90
2022-09-29T05:38:06.805Z,138.10
2022-09-29T05:39:06.728Z,102.40
2022-09-29T05:40:06.675Z,105.80
2022-09-29T05:41:06.608Z,109.40
2022-09-29T05:42:06.873Z,90.60
2022-09-29T05:43:06.475Z,84.90
2022-09-29T05:44:06.403Z,87.00
2022-09-29T05:45:06.670Z,93.20
2022-09-29T05:46:06.385Z,92.10
2022-09-29T05:47:06.217Z,106.20
2022-09-29T05:48:06.184Z,146.30
2022-09-29T05:49:06.082Z,104.40
2022-09-29T05:50:06.001Z,110.90
2022-09-29T05:51:05.953Z,110.70
2022-09-29T05:52:05.883Z,124.90
2022-09-29T05:53:05.821Z,108.70
2022-09-29T05:54:05.771Z,122.60
2022-09-29T05:55:05.690Z,110.80
2022-09-29T05:56:05.636Z,122.60
2022-09-29T05:57:05.664Z,140.60
2022-09-29T05:58:05.511Z,107.70
2022-09-29T05:59:05.433Z,102.60
2022-09-29T06:00:07.681Z,103.30
2022-09-29T06:01:05.376Z,101.80
2022-09-29T06:02:05.295Z,93.90
2022-09-29T06:03:06.213Z,94.50
2022-09-29T06:04:06.351Z,97.10
2022-09-29T06:05:06.895Z,86.80
2022-09-29T06:06:07.348Z,90.80
2022-09-29T06:07:04.925Z,97.50
2022-09-29T06:08:04.850Z,94.60
2022-09-29T06:09:04.784Z,81.40
2022-09-29T06:10:04.705Z,111.70
2022-09-29T06:11:04.651Z,95.70
2022-09-29T06:12:05.362Z,91.70
2022-09-29T06:13:04.518Z,89.00
2022-09-29T06:14:04.460Z,109.10
2022-09-29T06:15:04.394Z,102.30
2022-09-29T06:16:04.380Z,124.40
2022-09-29T06:17:04.270Z,105.60
2022-09-29T06:18:04.225Z,125.70
2022-09-29T06:19:04.173Z,121.40
2022-09-29T06:20:04.064Z,183.70
2022-09-29T06:21:04.013Z,143.70
2022-09-29T06:22:03.944Z,132.80
2022-09-29T06:23:03.878Z,140.00
2022-09-29T06:24:03.842Z,142.30
2022-09-29T06:25:03.752Z,138.50
2022-09-29T06:26:03.665Z,118.50
2022-09-29T06:27:03.600Z,140.10
2022-09-29T06:28:03.552Z,146.70
2022-09-29T06:29:03.494Z,132.80
2022-09-29T06:30:03.440Z,110.30
2022-09-29T06:31:03.365Z,126.90
2022-09-29T06:32:03.338Z,136.40
2022-09-29T06:33:03.255Z,131.30
2022-09-29T06:34:03.155Z,127.60
2022-09-29T06:35:03.082Z,122.90
2022-09-29T06:36:04.257Z,122.30
2022-09-29T06:37:02.973Z,124.40
2022-09-29T06:38:02.892Z,138.10
2022-09-29T06:39:02.849Z,135.80
2022-09-29T06:40:03.648Z,127.20
2022-09-29T06:41:02.781Z,97.70
2022-09-29T06:42:02.666Z,107.20
2022-09-29T06:43:02.572Z,118.70
2022-09-29T06:44:02.498Z,106.90
2022-09-29T06:45:02.468Z,117.90
2022-09-29T06:46:02.448Z,127.40
2022-09-29T06:47:02.320Z,112.50
2022-09-29T06:48:02.357Z,119.50
2022-09-29T06:49:02.188Z,114.50
2022-09-29T06:50:18.206Z,134.30
2022-09-29T06:51:09.662Z,94.50
2022-09-29T06:52:10.760Z,135.80
2022-09-29T06:53:04.614Z,98.90
2022-09-29T06:54:11.038Z,108.50
2022-09-29T06:55:01.802Z,159.30
2022-09-29T06:56:01.740Z,130.50
2022-09-29T06:57:01.663Z,97.20
2022-09-29T06:58:04.271Z,88.40
2022-09-29T06:59:01.548Z,89.30
2022-09-29T07:00:01.538Z,95.00
2022-09-29T07:01:01.424Z,102.70
2022-09-29T07:02:01.393Z,98.80
2022-09-29T07:03:01.269Z,92.90
2022-09-29T07:04:01.208Z,97.90
2022-09-29T07:05:01.155Z,107.40
2022-09-29T07:06:18.867Z,100.90
2022-09-29T07:07:01.034Z,103.80
2022-09-29T07:08:01.491Z,90.10
2022-09-29T07:09:00.898Z,92.10
2022-09-29T07:10:00.836Z,95.30
2022-09-29T07:11:00.770Z,91.50
2022-09-29T07:12:02.970Z,126.60
2022-09-29T07:13:00.625Z,117.80
2022-09-29T07:14:00.559Z,137.80
2022-09-29T07:15:00.516Z,107.30
2022-09-29T07:16:00.436Z,154.70
2022-09-29T07:17:00.362Z,117.60
2022-09-29T07:18:00.339Z,106.20
2022-09-29T07:19:00.257Z,173.40
2022-09-29T07:20:00.186Z,127.50
2022-09-29T07:21:00.104Z,105.00
2022-09-29T07:22:00.077Z,108.30
2022-09-29T07:22:59.982Z,109.30
2022-09-29T07:24:02.564Z,104.10
2022-09-29T07:24:59.859Z,93.40
2022-09-29T07:25:59.781Z,87.20
2022-09-29T07:26:59.731Z,121.50
2022-09-29T07:27:59.695Z,96.20
2022-09-29T07:29:00.160Z,91.10
2022-09-29T07:30:04.110Z,123.60
2022-09-29T07:31:10.746Z,84.90
2022-09-29T07:31:59.457Z,90.30
2022-09-29T07:33:02.282Z,84.60
2022-09-29T07:33:59.571Z,85.80
2022-09-29T07:34:59.203Z,94.70
2022-09-29T07:36:00.701Z,84.50
2022-09-29T07:36:59.067Z,88.10
2022-09-29T07:37:59.047Z,89.40
2022-09-29T07:38:58.957Z,81.40
2022-09-29T07:39:58.895Z,114.00
2022-09-29T07:40:58.881Z,81.30
2022-09-29T07:41:58.765Z,91.40
2022-09-29T07:42:58.695Z,89.70
2022-09-29T07:43:58.635Z,100.40
2022-09-29T07:44:58.567Z,81.50
2022-09-29T07:45:58.557Z,79.90
2022-09-29T07:46:58.426Z,82.30
2022-09-29T07:47:59.157Z,87.40
2022-09-29T07:48:58.305Z,76.40
2022-09-29T07:49:58.243Z,92.30
2022-09-29T07:50:58.167Z,75.30
2022-09-29T07:51:58.117Z,78.00
2022-09-29T07:52:58.049Z,69.10
2022-09-29T07:53:58.830Z,74.20
2022-09-29T07:54:57.914Z,63.00
2022-09-29T07:55:57.844Z,64.90
2022-09-29T07:56:57.793Z,66.00
2022-09-29T07:57:57.727Z,64.50
2022-09-29T07:58:57.655Z,68.00
2022-09-29T07:59:57.617Z,53.70
2022-09-29T08:00:57.573Z,56.50
2022-09-29T08:01:57.535Z,56.10
2022-09-29T08:02:57.399Z,61.00
2022-09-29T08:03:57.344Z,56.30
2022-09-29T08:05:01.411Z,53.40
2022-09-29T08:05:57.992Z,55.20
2022-09-29T08:06:57.146Z,50.00
2022-09-29T08:07:57.068Z,52.00
2022-09-29T08:09:04.060Z,52.90
2022-09-29T08:10:04.414Z,47.60
2022-09-29T08:10:56.893Z,62.80
2022-09-29T08:12:06.688Z,56.00
2022-09-29T08:12:56.767Z,69.40
2022-09-29T08:13:56.683Z,53.50
2022-09-29T08:14:56.628Z,63.70
2022-09-29T08:15:56.546Z,70.10
2022-09-29T08:16:56.582Z,56.60
2022-09-29T08:17:57.202Z,62.30
2022-09-29T08:18:56.383Z,49.30
2022-09-29T08:19:56.303Z,53.40
2022-09-29T08:20:58.782Z,49.80
2022-09-29T08:21:56.195Z,57.00
2022-09-29T08:22:56.119Z,54.70
2022-09-29T08:23:56.845Z,55.70
2022-09-29T08:24:56.014Z,47.00
2022-09-29T08:26:01.450Z,59.40
2022-09-29T08:26:55.870Z,59.80
2022-09-29T08:27:56.091Z,66.70
2022-09-29T08:29:05.034Z,55.20
2022-09-29T08:29:57.149Z,62.10
2022-09-29T08:30:55.607Z,58.60
2022-09-29T08:31:55.595Z,49.30
2022-09-29T08:32:56.153Z,60.50
2022-09-29T08:33:55.383Z,59.10
2022-09-29T08:34:55.365Z,52.30
2022-09-29T08:35:56.059Z,56.00
2022-09-29T08:36:55.223Z,47.00
2022-09-29T08:37:55.165Z,60.40
2022-09-29T08:38:55.088Z,56.80
2022-09-29T08:39:54.999Z,58.80
2022-09-29T08:40:54.993Z,45.80
2022-09-29T08:41:54.916Z,45.60
2022-09-29T08:42:54.815Z,51.80
2022-09-29T08:43:54.740Z,54.50
2022-09-29T08:44:56.474Z,35.60
2022-09-29T08:46:00.478Z,34.70
2022-09-29T08:47:06.505Z,32.60
2022-09-29T08:47:54.600Z,31.30
2022-09-29T08:48:58.357Z,31.50
2022-09-29T08:49:54.369Z,35.60
2022-09-29T08:50:54.303Z,36.60
2022-09-29T08:51:54.363Z,31.90
2022-09-29T08:52:54.171Z,37.00
2022-09-29T08:54:02.428Z,33.60
2022-09-29T08:54:54.048Z,35.30
2022-09-29T08:55:53.965Z,39.40
2022-09-29T08:56:53.905Z,31.90
2022-09-29T08:57:53.856Z,32.60
2022-09-29T08:58:53.773Z,32.90
2022-09-29T08:59:53.733Z,30.60
2022-09-29T09:00:53.703Z,37.10
2022-09-29T09:01:53.689Z,32.00
2022-09-29T09:02:56.716Z,33.20
2022-09-29T09:03:53.461Z,31.60
2022-09-29T09:04:53.391Z,31.10
2022-09-29T09:05:55.743Z,30.30
2022-09-29T09:06:53.290Z,28.60
2022-09-29T09:07:53.209Z,28.90
2022-09-29T09:08:53.167Z,31.00
2022-09-29T09:09:53.097Z,31.30
2022-09-29T09:10:52.997Z,31.20
2022-09-29T09:11:52.955Z,31.20
2022-09-29T09:12:52.870Z,29.60
2022-09-29T09:13:52.800Z,28.90
2022-09-29T09:14:52.745Z,37.30
2022-09-29T09:15:52.687Z,27.10
2022-09-29T09:16:52.688Z,32.40
2022-09-29T09:17:52.568Z,27.80
2022-09-29T09:18:52.559Z,27.60
2022-09-29T09:19:52.443Z,26.50
2022-09-29T09:20:52.377Z,27.10
2022-09-29T09:21:52.298Z,29.30
2022-09-29T09:22:52.244Z,33.10
2022-09-29T09:23:55.542Z,28.70
2022-09-29T09:24:52.106Z,30.60
2022-09-29T09:25:52.065Z,26.70
2022-09-29T09:26:52.004Z,29.50
2022-09-29T09:27:51.908Z,23.90
2022-09-29T09:28:51.858Z,25.30
2022-09-29T09:29:52.557Z,25.50
2022-09-29T09:30:51.796Z,27.20
2022-09-29T09:31:51.654Z,25.70
2022-09-29T09:32:51.581Z,22.80
2022-09-29T09:34:03.705Z,23.10
2022-09-29T09:34:51.460Z,23.60
2022-09-29T09:35:58.646Z,21.40
2022-09-29T09:37:01.616Z,22.30
2022-09-29T09:37:51.304Z,22.50
2022-09-29T09:38:51.205Z,23.70
2022-09-29T09:39:51.165Z,22.80
2022-09-29T09:40:51.066Z,21.60
2022-09-29T09:41:52.548Z,23.20
2022-09-29T09:42:50.941Z,22.30
2022-09-29T09:43:50.865Z,22.20
2022-09-29T09:44:50.802Z,22.90
2022-09-29T09:45:50.749Z,20.40
2022-09-29T09:46:50.697Z,23.00
2022-09-29T09:47:50.634Z,21.20
2022-09-29T09:48:50.547Z,21.80
2022-09-29T09:49:51.686Z,22.10
2022-09-29T09:50:50.910Z,21.50
2022-09-29T09:51:50.934Z,22.00
2022-09-29T09:52:50.289Z,22.20
2022-09-29T09:53:51.263Z,21.90
2022-09-29T09:54:50.158Z,21.20
2022-09-29T09:55:50.115Z,21.50
2022-09-29T09:56:50.046Z,21.40
2022-09-29T09:57:49.973Z,21.20
2022-09-29T09:58:49.934Z,21.20
2022-09-29T09:59:52.781Z,20.30
2022-09-29T10:00:49.812Z,19.50
2022-09-29T10:01:49.718Z,20.20
2022-09-29T10:02:49.706Z,19.70
2022-09-29T10:03:49.595Z,17.60
2022-09-29T10:04:49.528Z,18.10
2022-09-29T10:05:50.670Z,17.10
2022-09-29T10:06:49.385Z,18.50
2022-09-29T10:07:49.425Z,17.70
2022-09-29T10:08:49.264Z,17.40
2022-09-29T10:09:49.282Z,17.80
2022-09-29T10:10:58.221Z,21.40
2022-09-29T10:11:49.083Z,18.70
2022-09-29T10:12:49.016Z,18.30
2022-09-29T10:13:50.557Z,18.50
2022-09-29T10:14:50.882Z,16.80
2022-09-29T10:15:49.771Z,17.00
2022-09-29T10:16:49.013Z,16.60
2022-09-29T10:17:50.233Z,16.30
2022-09-29T10:18:48.666Z,16.60
2022-09-29T10:19:48.564Z,17.30
2022-09-29T10:20:48.504Z,16.20
2022-09-29T10:21:48.427Z,14.60
2022-09-29T10:22:51.109Z,15.90
2022-09-29T10:23:48.309Z,16.00
2022-09-29T10:24:48.255Z,15.20
2022-09-29T10:25:48.180Z,15.60
2022-09-29T10:26:48.111Z,15.90
2022-09-29T10:27:48.039Z,16.40
2022-09-29T10:28:47.976Z,15.00
2022-09-29T10:29:47.936Z,14.60
2022-09-29T10:30:47.942Z,16.20
2022-09-29T10:31:47.778Z,16.10
2022-09-29T10:32:47.736Z,15.00
2022-09-29T10:33:47.661Z,14.60
2022-09-29T10:34:47.608Z,14.90
2022-09-29T10:35:47.552Z,13.30
2022-09-29T10:36:47.461Z,14.20
2022-09-29T10:37:47.428Z,14.00
2022-09-29T10:38:47.350Z,14.40
2022-09-29T10:39:47.274Z,13.40
2022-09-29T10:40:47.208Z,16.20
2022-09-29T10:41:48.632Z,14.80
2022-09-29T10:42:47.106Z,15.30
2022-09-29T10:43:47.057Z,14.40
2022-09-29T10:44:46.971Z,14.10
2022-09-29T10:45:46.942Z,14.30
2022-09-29T10:46:46.846Z,14.10
2022-09-29T10:47:46.785Z,12.70
2022-09-29T10:48:46.708Z,10.90
2022-09-29T10:49:46.625Z,10.80
2022-09-29T10:50:46.674Z,11.20
2022-09-29T10:51:46.515Z,12.10
2022-09-29T10:52:46.435Z,11.50
2022-09-29T10:53:47.159Z,9.90
2022-09-29T10:54:46.317Z,10.00
2022-09-29T10:55:46.255Z,9.60
2022-09-29T10:56:46.928Z,10.60
2022-09-29T10:57:46.116Z,8.50
2022-09-29T10:59:00.035Z,9.20
2022-09-29T10:59:48.318Z,8.80
2022-09-29T11:00:45.939Z,8.70
2022-09-29T11:01:45.877Z,10.00
2022-09-29T11:02:45.833Z,13.00
2022-09-29T11:03:45.751Z,9.40
2022-09-29T11:04:45.694Z,8.90
2022-09-29T11:05:45.625Z,8.40
2022-09-29T11:06:45.544Z,8.10
2022-09-29T11:07:45.487Z,7.00
2022-09-29T11:08:45.458Z,6.00
2022-09-29T11:09:45.433Z,10.20
2022-09-29T11:10:45.295Z,6.00
2022-09-29T11:11:45.249Z,7.60
2022-09-29T11:12:45.195Z,11.20
2022-09-29T11:13:45.106Z,10.20
2022-09-29T11:14:45.076Z,8.40
2022-09-29T11:15:44.968Z,8.30
2022-09-29T11:16:44.947Z,7.40
2022-09-29T11:17:46.814Z,7.20
2022-09-29T11:18:44.788Z,6.70
2022-09-29T11:19:44.728Z,6.30
2022-09-29T11:20:44.663Z,5.90
2022-09-29T11:21:44.621Z,7.30
2022-09-29T11:22:44.518Z,9.40
2022-09-29T11:23:44.483Z,9.40
2022-09-29T11:24:44.389Z,10.10
2022-09-29T11:25:44.340Z,9.70
2022-09-29T11:26:44.281Z,9.80
2022-09-29T11:27:44.220Z,8.80
2022-09-29T11:28:44.142Z,8.70
2022-09-29T11:29:44.104Z,9.10
2022-09-29T11:30:44.074Z,8.50
2022-09-29T11:31:43.982Z,8.20
2022-09-29T11:32:43.899Z,8.40
2022-09-29T11:33:43.841Z,8.10
2022-09-29T11:34:43.763Z,7.90
2022-09-29T11:35:43.697Z,7.80
2022-09-29T11:36:43.624Z,7.80
2022-09-29T11:37:44.123Z,7.60
2022-09-29T11:38:43.497Z,7.10
2022-09-29T11:39:43.445Z,6.90
2022-09-29T11:40:43.395Z,7.20
2022-09-29T11:41:43.607Z,7.10
2022-09-29T11:42:43.234Z,6.50
2022-09-29T11:43:43.171Z,6.60
2022-09-29T11:44:43.111Z,9.40
2022-09-29T11:45:43.110Z,6.90
2022-09-29T11:46:42.994Z,6.10
2022-09-29T11:47:44.294Z,6.10
2022-09-29T11:48:42.850Z,6.70
2022-09-29T11:49:42.808Z,6.20
2022-09-29T11:50:42.739Z,5.90
2022-09-29T11:51:42.701Z,6.70
2022-09-29T11:52:42.613Z,7.20
2022-09-29T11:53:42.550Z,6.40
2022-09-29T11:54:42.485Z,6.60
2022-09-29T11:55:42.406Z,6.80
2022-09-29T11:56:42.346Z,5.70
2022-09-29T11:57:42.306Z,5.40
2022-09-29T11:58:42.230Z,6.20
2022-09-29T11:59:44.158Z,6.20
2022-09-29T12:00:42.087Z,6.20
2022-09-29T12:01:42.043Z,7.10
2022-09-29T12:02:42.092Z,6.40
2022-09-29T12:03:41.927Z,5.70
2022-09-29T12:04:41.833Z,6.10
2022-09-29T12:05:42.555Z,6.30
2022-09-29T12:06:41.699Z,5.90
2022-09-29T12:07:41.656Z,6.70
2022-09-29T12:08:41.593Z,7.40
2022-09-29T12:09:41.557Z,7.10
2022-09-29T12:10:41.461Z,8.30
2022-09-29T12:11:54.905Z,10.40
2022-09-29T12:12:41.378Z,7.50
2022-09-29T12:13:41.271Z,8.10
2022-09-29T12:14:41.451Z,11.60
2022-09-29T12:15:41.255Z,7.00
2022-09-29T12:16:41.144Z,7.10
2022-09-29T12:17:41.827Z,6.70
2022-09-29T12:18:40.944Z,7.50
2022-09-29T12:19:40.872Z,7.00
2022-09-29T12:20:40.805Z,7.30
2022-09-29T12:21:40.768Z,7.00
2022-09-29T12:22:44.252Z,6.80
2022-09-29T12:23:40.637Z,8.20
2022-09-29T12:24:40.553Z,8.00
2022-09-29T12:25:40.496Z,7.90
2022-09-29T12:26:40.452Z,8.30
2022-09-29T12:27:40.360Z,7.80
2022-09-29T12:28:40.312Z,8.40
2022-09-29T12:29:40.263Z,7.90
2022-09-29T12:30:40.213Z,7.10
2022-09-29T12:31:40.101Z,7.20
2022-09-29T12:32:40.146Z,7.80
2022-09-29T12:33:40.017Z,6.60
2022-09-29T12:34:39.929Z,8.10
2022-09-29T12:35:40.646Z,8.00
2022-09-29T12:36:39.784Z,7.60
2022-09-29T12:37:39.719Z,7.50
2022-09-29T12:38:39.676Z,6.90
2022-09-29T12:39:39.602Z,7.70
2022-09-29T12:40:39.549Z,6.80
2022-09-29T12:41:41.776Z,6.20
2022-09-29T12:42:39.423Z,6.80
2022-09-29T12:43:39.351Z,7.80
2022-09-29T12:44:39.288Z,7.40
2022-09-29T12:45:39.209Z,6.20
2022-09-29T12:46:39.141Z,6.10
2022-09-29T12:47:39.125Z,6.50
2022-09-29T12:48:39.045Z,6.60
2022-09-29T12:49:38.964Z,6.00
2022-09-29T12:50:38.887Z,6.10